イケメンは何をしててもイケメン♡

LUXURY FLIGHT

03-6423-7371

羽田本店:東京都大田区羽田5-11-1
営業時間:10:00~20:00
定休日:毎週 月曜日
セントレア店:愛知県常滑市セントレア1-1
営業時間:10:00~20:00 年中無休

lv

イケメンは何をしててもイケメン♡

STAFF BLOG

2019/09/07 イケメンは何をしててもイケメン♡

こんにちはーーーーーーーーーーーーーーーーー

セミの鳴き声がまだ残る、残暑厳しいここ羽田の今日のMETARは…

 

RJTT 070300Z 06005KT 9999 FEW015 SCT/// 31/23 Q1014

BECMG 09005KT RMK 1CU015 A2997

 

今日も暑いですね

 

 

 

本日はコチラのイケメン二人組

羽田での用事の最中にフラっと立ち寄ってくださいました

 

 

img_2884

 

 

そのクールな容姿から勝手に

 

操縦が上手いんだろうなーーーーーーー

 

なーーんてポジティブに考える私。笑

 

 

そして優しい笑顔からチラッと覗く白い歯を見て、

 

あぁ、モテるんだろうなぁ、と。

 

男が男に嫉妬するというのはこういうことなのですね。笑

 

まだ滑走路から1ミリも動いてないのに、複雑な感情が…。笑

 

 

 

 

しかーーーし

 

離陸さえしてしまえば、人類皆兄弟

と、必死に自分に言い聞かせ。

 

ナイスなランディングをしていただく為に

必死にフラップレバーやギアレバーを操作したことは言うまでもありません

 

お二人ともキッチリとセンターラインど真ん中に接地したのはやっぱり流石です

 

 

またお近くにいらした際には遊びに来てくださーーーい

 

 

この度のご来店誠にありがとうございました。

次回のご来店も心よりお待ち致しております。

 

「感謝」

 

 

 

 

 

 

 

 

TOP